MLD026 EPWA-LUKK
Flight info
| Callsign | MLD026 |
|---|---|
| Flight time | N/A |
| Altitude | 33000 |
| Route | XIMBA N195 NATEV DCT ROBTU DCT KENIN DCT KARIL DCT BUSES |
| Aircraft | T134/M-SDRWY/C |
Departure
| Time | 2026-05-05 12:51 |
|---|---|
| Airport | Warsaw Chopin Airport (EPWA) |
Arrival
| Time | N/A |
|---|---|
| Airport | Chişinău International Airport (LUKK) |
| Time | Latitude | Longitude | Altitude | Speed | Heading |
|---|---|---|---|---|---|
| 2026-05-05 12:24 | 52.17278 | 20.96605 | 335 ft | 0 kts | 208° |
| 2026-05-05 12:42 | 52.17274 | 20.96602 | 335 ft | 1 kts | 208° |
| 2026-05-05 12:42 | 52.17251 | 20.96577 | 335 ft | 6 kts | 216° |
| 2026-05-05 12:43 | 52.17216 | 20.96551 | 335 ft | 4 kts | 188° |
| 2026-05-05 12:43 | 52.17176 | 20.96558 | 335 ft | 7 kts | 157° |
| 2026-05-05 12:43 | 52.17155 | 20.96582 | 335 ft | 5 kts | 141° |
| 2026-05-05 12:43 | 52.17133 | 20.96613 | 334 ft | 0 kts | 138° |
| 2026-05-05 12:44 | 52.17093 | 20.96657 | 334 ft | 12 kts | 152° |
| 2026-05-05 12:44 | 52.17011 | 20.96731 | 332 ft | 14 kts | 150° |
| 2026-05-05 12:44 | 52.16920 | 20.96815 | 332 ft | 15 kts | 154° |
| 2026-05-05 12:44 | 52.16840 | 20.96884 | 333 ft | 0 kts | 149° |
| 2026-05-05 12:45 | 52.16824 | 20.96901 | 333 ft | 5 kts | 148° |
| 2026-05-05 12:46 | 52.16769 | 20.96945 | 334 ft | 11 kts | 151° |
| 2026-05-05 12:46 | 52.16688 | 20.97046 | 336 ft | 17 kts | 131° |
| 2026-05-05 12:46 | 52.16613 | 20.97233 | 338 ft | 22 kts | 112° |
| 2026-05-05 12:46 | 52.16538 | 20.97499 | 339 ft | 28 kts | 112° |
| 2026-05-05 12:47 | 52.16446 | 20.97826 | 337 ft | 32 kts | 114° |
| 2026-05-05 12:47 | 52.16356 | 20.98131 | 338 ft | 30 kts | 122° |
| 2026-05-05 12:47 | 52.16300 | 20.98326 | 338 ft | 16 kts | 111° |
| 2026-05-05 12:47 | 52.16217 | 20.98456 | 336 ft | 15 kts | 192° |
| 2026-05-05 12:48 | 52.16187 | 20.98439 | 336 ft | 0 kts | 204° |
| 2026-05-05 12:48 | 52.16184 | 20.98437 | 336 ft | 3 kts | 203° |
| 2026-05-05 12:49 | 52.16140 | 20.98396 | 335 ft | 11 kts | 218° |
| 2026-05-05 12:49 | 52.16126 | 20.98330 | 335 ft | 7 kts | 271° |
| 2026-05-05 12:49 | 52.16130 | 20.98303 | 335 ft | 0 kts | 289° |
| 2026-05-05 12:50 | 52.16141 | 20.98258 | 335 ft | 25 kts | 295° |
| 2026-05-05 12:50 | 52.16305 | 20.97624 | 336 ft | 94 kts | 299° |
| 2026-05-05 12:50 | 52.16665 | 20.96361 | 335 ft | 150 kts | 294° |
| 2026-05-05 12:51 | 52.17160 | 20.94677 | 527 ft | 174 kts | 292° |
| 2026-05-05 12:51 | 52.17637 | 20.92824 | 929 ft | 183 kts | 288° |
| 2026-05-05 12:51 | 52.17899 | 20.90738 | 1387 ft | 195 kts | 259° |
| 2026-05-05 12:51 | 52.17331 | 20.88581 | 1569 ft | 226 kts | 237° |
| 2026-05-05 12:52 | 52.16378 | 20.86448 | 2039 ft | 243 kts | 230° |
| 2026-05-05 12:52 | 52.15272 | 20.84160 | 2410 ft | 265 kts | 239° |
| 2026-05-05 12:52 | 52.14693 | 20.81311 | 3031 ft | 276 kts | 262° |
| 2026-05-05 12:52 | 52.14468 | 20.78164 | 3714 ft | 284 kts | 261° |
| 2026-05-05 12:53 | 52.14164 | 20.75015 | 4416 ft | 289 kts | 254° |
| 2026-05-05 12:53 | 52.13272 | 20.72085 | 5155 ft | 290 kts | 230° |
| 2026-05-05 12:53 | 52.11824 | 20.69863 | 5858 ft | 292 kts | 219° |
| 2026-05-05 12:53 | 52.10202 | 20.67649 | 6032 ft | 312 kts | 220° |
| 2026-05-05 12:54 | 52.06815 | 20.63057 | 6790 ft | 322 kts | 220° |
| 2026-05-05 12:54 | 52.05108 | 20.60750 | 7225 ft | 323 kts | 219° |
| 2026-05-05 12:54 | 52.03223 | 20.58791 | 7688 ft | 323 kts | 202° |
| 2026-05-05 12:55 | 52.01062 | 20.58017 | 8147 ft | 324 kts | 184° |
| 2026-05-05 12:55 | 51.98862 | 20.58383 | 8594 ft | 326 kts | 166° |
| 2026-05-05 12:55 | 51.96751 | 20.59923 | 9054 ft | 330 kts | 148° |
| 2026-05-05 12:55 | 51.95020 | 20.62334 | 9477 ft | 334 kts | 139° |
| 2026-05-05 12:56 | 51.93313 | 20.64911 | 9876 ft | 335 kts | 140° |
| 2026-05-05 12:56 | 51.91605 | 20.67509 | 10274 ft | 337 kts | 140° |
| 2026-05-05 12:56 | 51.89909 | 20.70073 | 10673 ft | 338 kts | 140° |
| 2026-05-05 12:56 | 51.88182 | 20.72696 | 11086 ft | 339 kts | 140° |
| 2026-05-05 12:57 | 51.86466 | 20.75301 | 11493 ft | 341 kts | 140° |
| 2026-05-05 12:57 | 51.84732 | 20.77893 | 11897 ft | 341 kts | 144° |
| 2026-05-05 12:57 | 51.82709 | 20.79857 | 12299 ft | 336 kts | 161° |
| 2026-05-05 12:57 | 51.80558 | 20.81327 | 12704 ft | 338 kts | 159° |
| 2026-05-05 12:58 | 51.78508 | 20.83227 | 13099 ft | 345 kts | 144° |
| 2026-05-05 12:58 | 51.77004 | 20.85847 | 13465 ft | 353 kts | 128° |
| 2026-05-05 12:58 | 51.75899 | 20.89405 | 13861 ft | 361 kts | 111° |
| 2026-05-05 12:58 | 51.75188 | 20.93314 | 14267 ft | 363 kts | 109° |
| 2026-05-05 12:59 | 51.74496 | 20.97224 | 14669 ft | 365 kts | 108° |
| 2026-05-05 12:59 | 51.73851 | 21.01154 | 15072 ft | 366 kts | 108° |
| 2026-05-05 12:59 | 51.73208 | 21.05121 | 15479 ft | 367 kts | 108° |
| 2026-05-05 13:00 | 51.72067 | 21.13140 | 16291 ft | 371 kts | 98° |
| 2026-05-05 13:00 | 51.71480 | 21.17133 | 16686 ft | 367 kts | 116° |
| 2026-05-05 13:01 | 51.68020 | 21.26865 | 17802 ft | 367 kts | 123° |
| 2026-05-05 13:01 | 51.67000 | 21.29672 | 18123 ft | 368 kts | 122° |
| 2026-05-05 13:01 | 51.65857 | 21.33359 | 18526 ft | 370 kts | 117° |
| 2026-05-05 13:01 | 51.64687 | 21.37063 | 18920 ft | 368 kts | 126° |
| 2026-05-05 13:02 | 51.63005 | 21.40075 | 19311 ft | 362 kts | 144° |
| 2026-05-05 13:02 | 51.61002 | 21.42487 | 19707 ft | 362 kts | 146° |
| 2026-05-05 13:02 | 51.58986 | 21.44865 | 20097 ft | 362 kts | 147° |
| 2026-05-05 13:02 | 51.56922 | 21.47233 | 20486 ft | 363 kts | 147° |
| 2026-05-05 13:03 | 51.54861 | 21.49557 | 20870 ft | 364 kts | 148° |
| 2026-05-05 13:03 | 51.52790 | 21.51865 | 21253 ft | 364 kts | 148° |
| 2026-05-05 13:03 | 51.50725 | 21.54178 | 21633 ft | 365 kts | 147° |
| 2026-05-05 13:03 | 51.48688 | 21.56590 | 22011 ft | 366 kts | 145° |
| 2026-05-05 13:04 | 51.46652 | 21.59020 | 22387 ft | 367 kts | 146° |
| 2026-05-05 13:04 | 51.44599 | 21.61414 | 22761 ft | 367 kts | 146° |
| 2026-05-05 13:04 | 51.42510 | 21.63825 | 23137 ft | 368 kts | 146° |
| 2026-05-05 13:04 | 51.40444 | 21.66211 | 23503 ft | 368 kts | 147° |
| 2026-05-05 13:05 | 51.38354 | 21.68571 | 23866 ft | 368 kts | 150° |
| 2026-05-05 13:05 | 51.37452 | 21.69502 | 24018 ft | 368 kts | 150° |
| 2026-05-05 13:06 | 51.37249 | 21.69709 | 24052 ft | 368 kts | 150° |
| 2026-05-05 13:06 | 51.36026 | 21.70970 | 24257 ft | 368 kts | 150° |
| 2026-05-05 13:06 | 51.33878 | 21.73119 | 24590 ft | 368 kts | 154° |
| 2026-05-05 13:07 | 51.31592 | 21.75023 | 24903 ft | 370 kts | 155° |
| 2026-05-05 13:07 | 51.29383 | 21.77110 | 25211 ft | 373 kts | 151° |
| 2026-05-05 13:07 | 51.27094 | 21.79090 | 25524 ft | 373 kts | 155° |
| 2026-05-05 13:07 | 51.24877 | 21.81168 | 25832 ft | 377 kts | 149° |
| 2026-05-05 13:08 | 51.22605 | 21.83245 | 26140 ft | 375 kts | 155° |
| 2026-05-05 13:08 | 51.20382 | 21.85374 | 26440 ft | 378 kts | 151° |
| 2026-05-05 13:08 | 51.18054 | 21.87341 | 26747 ft | 378 kts | 156° |
| 2026-05-05 13:08 | 51.15770 | 21.89347 | 27049 ft | 380 kts | 152° |
| 2026-05-05 13:09 | 51.13537 | 21.91663 | 27357 ft | 383 kts | 147° |
| 2026-05-05 13:09 | 51.11357 | 21.94033 | 27661 ft | 384 kts | 148° |
| 2026-05-05 13:09 | 51.09131 | 21.96430 | 27969 ft | 386 kts | 148° |
| 2026-05-05 13:09 | 51.06930 | 21.98796 | 28273 ft | 387 kts | 148° |
| 2026-05-05 13:10 | 51.04689 | 22.01202 | 28580 ft | 388 kts | 148° |
| 2026-05-05 13:10 | 51.02447 | 22.03503 | 28879 ft | 388 kts | 154° |
| 2026-05-05 13:10 | 51.00127 | 22.05448 | 29169 ft | 386 kts | 151° |
| 2026-05-05 13:10 | 50.97832 | 22.07812 | 29463 ft | 385 kts | 153° |
| 2026-05-05 13:11 | 50.95410 | 22.09874 | 29774 ft | 385 kts | 151° |
| 2026-05-05 13:11 | 50.93129 | 22.12157 | 30080 ft | 385 kts | 150° |
| 2026-05-05 13:11 | 50.90868 | 22.14438 | 30377 ft | 385 kts | 148° |
| 2026-05-05 13:11 | 50.88548 | 22.16552 | 30659 ft | 382 kts | 161° |
| 2026-05-05 13:12 | 50.86000 | 22.17556 | 30919 ft | 378 kts | 177° |
| 2026-05-05 13:12 | 50.83353 | 22.17661 | 31184 ft | 376 kts | 182° |
| 2026-05-05 13:12 | 50.81710 | 22.17660 | 31346 ft | 377 kts | 182° |
| 2026-05-05 13:13 | 50.79143 | 22.17625 | 31598 ft | 377 kts | 182° |
| 2026-05-05 13:13 | 50.76529 | 22.17552 | 31839 ft | 378 kts | 183° |
| 2026-05-05 13:13 | 50.73909 | 22.17438 | 32077 ft | 379 kts | 184° |
| 2026-05-05 13:14 | 50.72122 | 22.17337 | 32238 ft | 379 kts | 184° |
| 2026-05-05 13:14 | 50.71417 | 22.17291 | 32301 ft | 379 kts | 184° |
| 2026-05-05 13:14 | 50.68718 | 22.17088 | 32452 ft | 383 kts | 185° |
| 2026-05-05 13:14 | 50.66056 | 22.16843 | 32584 ft | 387 kts | 185° |
| 2026-05-05 13:15 | 50.63309 | 22.16567 | 32728 ft | 391 kts | 185° |
| 2026-05-05 13:15 | 50.60582 | 22.16295 | 32879 ft | 394 kts | 185° |
| 2026-05-05 13:15 | 50.54977 | 22.15737 | 32879 ft | 409 kts | 186° |
| 2026-05-05 13:16 | 50.49298 | 22.14469 | 32878 ft | 420 kts | 185° |
| 2026-05-05 13:16 | 50.43450 | 22.13145 | 32863 ft | 429 kts | 188° |
| 2026-05-05 13:17 | 50.37519 | 22.11856 | 32861 ft | 432 kts | 188° |
| 2026-05-05 13:17 | 50.31567 | 22.10583 | 32871 ft | 439 kts | 189° |
| 2026-05-05 13:18 | 50.25497 | 22.09285 | 32873 ft | 442 kts | 189° |
| 2026-05-05 13:18 | 50.19416 | 22.07990 | 32876 ft | 440 kts | 189° |
| 2026-05-05 13:19 | 50.13317 | 22.06692 | 32878 ft | 440 kts | 190° |
| 2026-05-05 13:19 | 50.07267 | 22.05406 | 32879 ft | 440 kts | 191° |
| 2026-05-05 13:20 | 50.01233 | 22.04127 | 32879 ft | 440 kts | 191° |
| 2026-05-05 13:20 | 49.95951 | 22.03060 | 32877 ft | 440 kts | 192° |